sensor_id;sensor_type;location;lat;lon;timestamp;P1;durP1;ratioP1;P2;durP2;ratioP2
72156;SDS011;60035;52.122;5.406;2023-07-28T00:01:30;20.27;;;8.90;;
72156;SDS011;60035;52.122;5.406;2023-07-28T00:03:56;22.65;;;8.93;;
72156;SDS011;60035;52.122;5.406;2023-07-28T00:06:24;21.80;;;8.68;;
72156;SDS011;60035;52.122;5.406;2023-07-28T00:08:50;18.95;;;9.23;;
72156;SDS011;60035;52.122;5.406;2023-07-28T00:11:17;20.23;;;9.00;;
72156;SDS011;60035;52.122;5.406;2023-07-28T00:13:43;18.38;;;8.95;;
72156;SDS011;60035;52.122;5.406;2023-07-28T00:16:10;19.75;;;8.88;;
72156;SDS011;60035;52.122;5.406;2023-07-28T00:18:37;22.15;;;8.95;;
72156;SDS011;60035;52.122;5.406;2023-07-28T00:21:04;17.60;;;8.07;;
72156;SDS011;60035;52.122;5.406;2023-07-28T00:23:31;19.42;;;8.98;;
72156;SDS011;60035;52.122;5.406;2023-07-28T00:25:57;21.27;;;8.50;;
72156;SDS011;60035;52.122;5.406;2023-07-28T00:28:24;18.65;;;8.85;;
72156;SDS011;60035;52.122;5.406;2023-07-28T00:30:50;21.05;;;8.30;;
72156;SDS011;60035;52.122;5.406;2023-07-28T00:33:18;16.25;;;8.07;;
72156;SDS011;60035;52.122;5.406;2023-07-28T00:35:45;20.60;;;8.93;;
72156;SDS011;60035;52.122;5.406;2023-07-28T00:38:11;19.38;;;8.13;;
72156;SDS011;60035;52.122;5.406;2023-07-28T00:40:38;15.73;;;7.13;;
72156;SDS011;60035;52.122;5.406;2023-07-28T00:43:04;16.63;;;7.90;;
72156;SDS011;60035;52.122;5.406;2023-07-28T00:45:31;15.68;;;6.72;;
72156;SDS011;60035;52.122;5.406;2023-07-28T00:48:00;15.13;;;7.18;;
72156;SDS011;60035;52.122;5.406;2023-07-28T00:50:27;15.48;;;6.80;;
72156;SDS011;60035;52.122;5.406;2023-07-28T00:52:54;17.60;;;6.90;;
72156;SDS011;60035;52.122;5.406;2023-07-28T00:55:22;16.25;;;6.50;;
72156;SDS011;60035;52.122;5.406;2023-07-28T00:57:49;16.15;;;6.55;;
72156;SDS011;60035;52.122;5.406;2023-07-28T01:00:16;19.00;;;6.82;;
72156;SDS011;60035;52.122;5.406;2023-07-28T01:02:43;18.02;;;6.75;;
72156;SDS011;60035;52.122;5.406;2023-07-28T01:05:10;17.75;;;6.53;;
72156;SDS011;60035;52.122;5.406;2023-07-28T01:10:14;16.30;;;6.03;;
72156;SDS011;60035;52.122;5.406;2023-07-28T01:12:48;16.17;;;6.20;;
72156;SDS011;60035;52.122;5.406;2023-07-28T01:15:15;20.88;;;7.20;;
72156;SDS011;60035;52.122;5.406;2023-07-28T01:17:42;17.08;;;6.80;;
72156;SDS011;60035;52.122;5.406;2023-07-28T01:20:08;18.58;;;6.43;;
72156;SDS011;60035;52.122;5.406;2023-07-28T01:25:46;15.88;;;6.82;;
72156;SDS011;60035;52.122;5.406;2023-07-28T01:28:19;15.82;;;6.40;;
72156;SDS011;60035;52.122;5.406;2023-07-28T01:30:46;15.50;;;5.82;;
72156;SDS011;60035;52.122;5.406;2023-07-28T01:33:13;17.77;;;6.80;;
72156;SDS011;60035;52.122;5.406;2023-07-28T01:35:40;17.58;;;6.35;;
72156;SDS011;60035;52.122;5.406;2023-07-28T01:38:06;22.60;;;6.50;;
72156;SDS011;60035;52.122;5.406;2023-07-28T01:40:33;17.17;;;5.90;;
72156;SDS011;60035;52.122;5.406;2023-07-28T01:42:59;17.67;;;6.25;;
72156;SDS011;60035;52.122;5.406;2023-07-28T01:45:26;19.63;;;7.15;;
72156;SDS011;60035;52.122;5.406;2023-07-28T01:47:53;18.02;;;6.90;;
72156;SDS011;60035;52.122;5.406;2023-07-28T01:50:19;16.88;;;6.80;;
72156;SDS011;60035;52.122;5.406;2023-07-28T01:52:46;16.55;;;6.40;;
72156;SDS011;60035;52.122;5.406;2023-07-28T01:55:12;19.77;;;7.07;;
72156;SDS011;60035;52.122;5.406;2023-07-28T01:57:39;19.25;;;7.57;;
72156;SDS011;60035;52.122;5.406;2023-07-28T02:00:06;21.73;;;7.32;;
72156;SDS011;60035;52.122;5.406;2023-07-28T02:02:33;18.35;;;7.43;;
72156;SDS011;60035;52.122;5.406;2023-07-28T02:05:00;17.02;;;6.85;;
72156;SDS011;60035;52.122;5.406;2023-07-28T02:07:27;18.70;;;7.75;;
72156;SDS011;60035;52.122;5.406;2023-07-28T02:09:53;20.48;;;7.90;;
72156;SDS011;60035;52.122;5.406;2023-07-28T02:12:20;23.00;;;7.97;;
72156;SDS011;60035;52.122;5.406;2023-07-28T02:14:46;22.38;;;7.63;;
72156;SDS011;60035;52.122;5.406;2023-07-28T02:17:13;20.65;;;7.13;;
72156;SDS011;60035;52.122;5.406;2023-07-28T02:19:39;16.73;;;7.20;;
72156;SDS011;60035;52.122;5.406;2023-07-28T02:22:05;19.75;;;7.75;;
72156;SDS011;60035;52.122;5.406;2023-07-28T02:24:34;18.60;;;7.25;;
72156;SDS011;60035;52.122;5.406;2023-07-28T02:27:00;23.52;;;8.45;;
72156;SDS011;60035;52.122;5.406;2023-07-28T02:29:27;20.98;;;7.97;;
72156;SDS011;60035;52.122;5.406;2023-07-28T02:31:53;21.27;;;7.82;;
72156;SDS011;60035;52.122;5.406;2023-07-28T02:34:20;28.75;;;8.88;;
72156;SDS011;60035;52.122;5.406;2023-07-28T02:36:47;24.55;;;9.60;;
72156;SDS011;60035;52.122;5.406;2023-07-28T02:39:13;28.95;;;9.95;;
72156;SDS011;60035;52.122;5.406;2023-07-28T02:41:40;25.75;;;9.50;;
72156;SDS011;60035;52.122;5.406;2023-07-28T02:44:06;27.92;;;9.77;;
72156;SDS011;60035;52.122;5.406;2023-07-28T02:46:33;25.75;;;9.80;;
72156;SDS011;60035;52.122;5.406;2023-07-28T02:49:00;28.23;;;9.77;;
72156;SDS011;60035;52.122;5.406;2023-07-28T02:51:30;29.08;;;9.45;;
72156;SDS011;60035;52.122;5.406;2023-07-28T02:53:56;27.33;;;10.00;;
72156;SDS011;60035;52.122;5.406;2023-07-28T02:56:23;29.05;;;10.63;;
72156;SDS011;60035;52.122;5.406;2023-07-28T02:58:50;22.50;;;9.52;;
72156;SDS011;60035;52.122;5.406;2023-07-28T03:01:17;28.70;;;10.07;;
72156;SDS011;60035;52.122;5.406;2023-07-28T03:03:43;28.67;;;10.30;;
72156;SDS011;60035;52.122;5.406;2023-07-28T03:06:10;24.73;;;9.80;;
72156;SDS011;60035;52.122;5.406;2023-07-28T03:08:37;27.83;;;9.85;;
72156;SDS011;60035;52.122;5.406;2023-07-28T03:11:04;27.95;;;11.23;;
72156;SDS011;60035;52.122;5.406;2023-07-28T03:13:30;28.40;;;10.57;;
72156;SDS011;60035;52.122;5.406;2023-07-28T03:15:56;25.90;;;9.93;;
72156;SDS011;60035;52.122;5.406;2023-07-28T03:18:23;24.92;;;10.35;;
72156;SDS011;60035;52.122;5.406;2023-07-28T03:20:49;24.95;;;10.20;;
72156;SDS011;60035;52.122;5.406;2023-07-28T03:23:16;24.35;;;9.27;;
72156;SDS011;60035;52.122;5.406;2023-07-28T03:25:43;28.65;;;9.95;;
72156;SDS011;60035;52.122;5.406;2023-07-28T03:28:09;28.27;;;10.10;;
72156;SDS011;60035;52.122;5.406;2023-07-28T03:30:36;31.05;;;10.18;;
72156;SDS011;60035;52.122;5.406;2023-07-28T03:33:02;27.15;;;9.88;;
72156;SDS011;60035;52.122;5.406;2023-07-28T03:35:32;33.10;;;11.00;;
72156;SDS011;60035;52.122;5.406;2023-07-28T03:37:58;30.73;;;10.90;;
72156;SDS011;60035;52.122;5.406;2023-07-28T03:40:25;31.52;;;10.60;;
72156;SDS011;60035;52.122;5.406;2023-07-28T03:42:52;30.30;;;11.30;;
72156;SDS011;60035;52.122;5.406;2023-07-28T03:45:19;29.00;;;10.35;;
72156;SDS011;60035;52.122;5.406;2023-07-28T03:47:46;29.98;;;9.68;;
72156;SDS011;60035;52.122;5.406;2023-07-28T03:50:13;35.47;;;12.02;;
72156;SDS011;60035;52.122;5.406;2023-07-28T03:52:40;33.95;;;10.93;;
72156;SDS011;60035;52.122;5.406;2023-07-28T03:55:06;38.47;;;11.52;;
72156;SDS011;60035;52.122;5.406;2023-07-28T03:57:33;36.13;;;11.05;;
72156;SDS011;60035;52.122;5.406;2023-07-28T03:59:59;35.90;;;11.20;;
72156;SDS011;60035;52.122;5.406;2023-07-28T04:02:26;30.45;;;10.70;;
72156;SDS011;60035;52.122;5.406;2023-07-28T04:04:53;39.60;;;12.35;;
72156;SDS011;60035;52.122;5.406;2023-07-28T04:07:21;36.22;;;11.55;;
72156;SDS011;60035;52.122;5.406;2023-07-28T04:09:47;33.45;;;11.65;;
72156;SDS011;60035;52.122;5.406;2023-07-28T04:12:14;36.20;;;11.57;;
72156;SDS011;60035;52.122;5.406;2023-07-28T04:14:40;35.13;;;11.75;;
72156;SDS011;60035;52.122;5.406;2023-07-28T04:17:07;31.15;;;12.13;;
72156;SDS011;60035;52.122;5.406;2023-07-28T04:19:34;38.53;;;12.05;;
72156;SDS011;60035;52.122;5.406;2023-07-28T04:22:00;37.55;;;12.07;;
72156;SDS011;60035;52.122;5.406;2023-07-28T04:24:27;35.50;;;12.45;;
72156;SDS011;60035;52.122;5.406;2023-07-28T04:26:53;33.47;;;11.93;;
72156;SDS011;60035;52.122;5.406;2023-07-28T04:29:20;32.90;;;11.75;;
72156;SDS011;60035;52.122;5.406;2023-07-28T04:31:46;32.13;;;11.43;;
72156;SDS011;60035;52.122;5.406;2023-07-28T04:34:13;34.78;;;11.23;;
72156;SDS011;60035;52.122;5.406;2023-07-28T04:36:39;33.05;;;11.77;;
72156;SDS011;60035;52.122;5.406;2023-07-28T04:39:06;36.83;;;12.05;;
72156;SDS011;60035;52.122;5.406;2023-07-28T04:41:33;37.25;;;11.88;;
72156;SDS011;60035;52.122;5.406;2023-07-28T04:43:59;41.50;;;12.18;;
72156;SDS011;60035;52.122;5.406;2023-07-28T04:46:25;41.03;;;12.38;;
72156;SDS011;60035;52.122;5.406;2023-07-28T04:48:53;37.45;;;11.55;;
72156;SDS011;60035;52.122;5.406;2023-07-28T04:51:20;35.38;;;12.45;;
72156;SDS011;60035;52.122;5.406;2023-07-28T04:53:47;36.92;;;12.02;;
72156;SDS011;60035;52.122;5.406;2023-07-28T04:56:14;32.70;;;11.93;;
72156;SDS011;60035;52.122;5.406;2023-07-28T04:58:40;38.47;;;12.43;;
72156;SDS011;60035;52.122;5.406;2023-07-28T05:01:07;36.60;;;11.10;;
72156;SDS011;60035;52.122;5.406;2023-07-28T05:03:35;36.50;;;12.88;;
72156;SDS011;60035;52.122;5.406;2023-07-28T05:06:02;32.70;;;11.48;;
72156;SDS011;60035;52.122;5.406;2023-07-28T05:08:30;38.80;;;11.98;;
72156;SDS011;60035;52.122;5.406;2023-07-28T05:10:57;39.95;;;11.98;;
72156;SDS011;60035;52.122;5.406;2023-07-28T05:13:23;35.92;;;12.05;;
72156;SDS011;60035;52.122;5.406;2023-07-28T05:15:50;34.53;;;11.25;;
72156;SDS011;60035;52.122;5.406;2023-07-28T05:18:16;39.03;;;12.57;;
72156;SDS011;60035;52.122;5.406;2023-07-28T05:20:43;39.47;;;11.80;;
72156;SDS011;60035;52.122;5.406;2023-07-28T05:23:09;34.58;;;12.02;;
72156;SDS011;60035;52.122;5.406;2023-07-28T05:25:36;30.83;;;10.93;;
72156;SDS011;60035;52.122;5.406;2023-07-28T05:28:02;32.00;;;11.75;;
72156;SDS011;60035;52.122;5.406;2023-07-28T05:30:29;31.08;;;11.63;;
72156;SDS011;60035;52.122;5.406;2023-07-28T05:32:57;30.25;;;11.52;;
72156;SDS011;60035;52.122;5.406;2023-07-28T05:35:23;31.85;;;10.98;;
72156;SDS011;60035;52.122;5.406;2023-07-28T05:37:50;30.13;;;11.07;;
72156;SDS011;60035;52.122;5.406;2023-07-28T05:40:17;32.80;;;10.45;;
72156;SDS011;60035;52.122;5.406;2023-07-28T05:42:43;30.83;;;10.93;;
72156;SDS011;60035;52.122;5.406;2023-07-28T05:45:10;30.17;;;10.50;;
72156;SDS011;60035;52.122;5.406;2023-07-28T05:47:37;35.00;;;10.73;;
72156;SDS011;60035;52.122;5.406;2023-07-28T05:50:04;28.05;;;10.25;;
72156;SDS011;60035;52.122;5.406;2023-07-28T05:52:31;28.65;;;11.35;;
72156;SDS011;60035;52.122;5.406;2023-07-28T05:54:58;31.75;;;10.43;;
72156;SDS011;60035;52.122;5.406;2023-07-28T05:57:24;26.92;;;10.98;;
72156;SDS011;60035;52.122;5.406;2023-07-28T05:59:51;30.67;;;10.70;;
72156;SDS011;60035;52.122;5.406;2023-07-28T06:02:17;28.10;;;10.60;;
72156;SDS011;60035;52.122;5.406;2023-07-28T06:04:44;28.80;;;10.38;;
72156;SDS011;60035;52.122;5.406;2023-07-28T06:07:11;29.08;;;10.80;;
72156;SDS011;60035;52.122;5.406;2023-07-28T06:09:38;25.77;;;10.52;;
72156;SDS011;60035;52.122;5.406;2023-07-28T06:12:05;24.83;;;10.65;;
72156;SDS011;60035;52.122;5.406;2023-07-28T06:14:31;29.33;;;10.63;;
72156;SDS011;60035;52.122;5.406;2023-07-28T06:16:58;25.42;;;10.55;;
72156;SDS011;60035;52.122;5.406;2023-07-28T06:19:25;24.83;;;10.50;;
72156;SDS011;60035;52.122;5.406;2023-07-28T06:21:51;25.95;;;9.55;;
72156;SDS011;60035;52.122;5.406;2023-07-28T06:24:18;22.73;;;9.40;;
72156;SDS011;60035;52.122;5.406;2023-07-28T06:26:45;25.50;;;10.10;;
72156;SDS011;60035;52.122;5.406;2023-07-28T06:29:12;22.45;;;9.73;;
72156;SDS011;60035;52.122;5.406;2023-07-28T06:31:38;25.80;;;10.65;;
72156;SDS011;60035;52.122;5.406;2023-07-28T06:34:05;23.85;;;9.68;;
72156;SDS011;60035;52.122;5.406;2023-07-28T06:36:32;19.80;;;9.15;;
72156;SDS011;60035;52.122;5.406;2023-07-28T06:38:59;25.00;;;9.70;;
72156;SDS011;60035;52.122;5.406;2023-07-28T06:41:25;24.10;;;9.85;;
72156;SDS011;60035;52.122;5.406;2023-07-28T06:43:52;25.60;;;9.80;;
72156;SDS011;60035;52.122;5.406;2023-07-28T06:46:18;25.33;;;10.13;;
72156;SDS011;60035;52.122;5.406;2023-07-28T06:48:45;25.23;;;9.93;;
72156;SDS011;60035;52.122;5.406;2023-07-28T06:51:12;24.98;;;10.20;;
72156;SDS011;60035;52.122;5.406;2023-07-28T06:53:38;26.92;;;10.15;;
72156;SDS011;60035;52.122;5.406;2023-07-28T06:56:05;31.40;;;10.77;;
72156;SDS011;60035;52.122;5.406;2023-07-28T06:58:31;24.05;;;9.57;;
72156;SDS011;60035;52.122;5.406;2023-07-28T07:00:58;21.85;;;9.95;;
72156;SDS011;60035;52.122;5.406;2023-07-28T07:03:24;23.00;;;9.77;;
72156;SDS011;60035;52.122;5.406;2023-07-28T07:05:51;23.83;;;10.70;;
72156;SDS011;60035;52.122;5.406;2023-07-28T07:08:18;24.10;;;10.32;;
72156;SDS011;60035;52.122;5.406;2023-07-28T07:10:50;23.58;;;10.07;;
72156;SDS011;60035;52.122;5.406;2023-07-28T07:13:18;25.85;;;10.38;;
72156;SDS011;60035;52.122;5.406;2023-07-28T07:15:45;22.23;;;10.55;;
72156;SDS011;60035;52.122;5.406;2023-07-28T07:18:12;25.30;;;9.80;;
72156;SDS011;60035;52.122;5.406;2023-07-28T07:20:39;23.42;;;9.50;;
72156;SDS011;60035;52.122;5.406;2023-07-28T07:23:06;20.95;;;9.57;;
72156;SDS011;60035;52.122;5.406;2023-07-28T07:25:33;23.42;;;9.88;;
72156;SDS011;60035;52.122;5.406;2023-07-28T07:28:00;28.35;;;10.52;;
72156;SDS011;60035;52.122;5.406;2023-07-28T07:30:26;23.92;;;10.60;;
72156;SDS011;60035;52.122;5.406;2023-07-28T07:32:53;28.45;;;10.88;;
72156;SDS011;60035;52.122;5.406;2023-07-28T07:35:20;25.27;;;11.20;;
72156;SDS011;60035;52.122;5.406;2023-07-28T07:37:46;23.05;;;9.95;;
72156;SDS011;60035;52.122;5.406;2023-07-28T07:40:13;20.88;;;9.23;;
72156;SDS011;60035;52.122;5.406;2023-07-28T07:42:46;23.05;;;9.77;;
72156;SDS011;60035;52.122;5.406;2023-07-28T07:45:14;21.90;;;9.32;;
72156;SDS011;60035;52.122;5.406;2023-07-28T07:47:41;21.40;;;9.70;;
72156;SDS011;60035;52.122;5.406;2023-07-28T07:50:09;20.77;;;8.63;;
72156;SDS011;60035;52.122;5.406;2023-07-28T07:52:37;21.00;;;8.38;;
72156;SDS011;60035;52.122;5.406;2023-07-28T07:55:08;20.30;;;8.07;;
72156;SDS011;60035;52.122;5.406;2023-07-28T07:57:35;19.65;;;7.70;;
72156;SDS011;60035;52.122;5.406;2023-07-28T08:00:02;17.05;;;7.72;;
72156;SDS011;60035;52.122;5.406;2023-07-28T08:02:29;18.80;;;7.55;;
72156;SDS011;60035;52.122;5.406;2023-07-28T08:04:55;16.15;;;7.22;;
72156;SDS011;60035;52.122;5.406;2023-07-28T08:07:22;18.10;;;6.95;;
72156;SDS011;60035;52.122;5.406;2023-07-28T08:09:49;19.60;;;7.60;;
72156;SDS011;60035;52.122;5.406;2023-07-28T08:12:19;14.43;;;6.95;;
72156;SDS011;60035;52.122;5.406;2023-07-28T08:14:48;15.07;;;6.18;;
72156;SDS011;60035;52.122;5.406;2023-07-28T08:17:15;14.43;;;6.72;;
72156;SDS011;60035;52.122;5.406;2023-07-28T08:19:41;14.57;;;6.78;;
72156;SDS011;60035;52.122;5.406;2023-07-28T08:22:08;14.88;;;5.95;;
72156;SDS011;60035;52.122;5.406;2023-07-28T08:24:34;15.45;;;6.05;;
72156;SDS011;60035;52.122;5.406;2023-07-28T08:27:01;14.50;;;5.40;;
72156;SDS011;60035;52.122;5.406;2023-07-28T08:29:27;12.00;;;4.90;;
72156;SDS011;60035;52.122;5.406;2023-07-28T08:31:54;13.18;;;5.20;;
72156;SDS011;60035;52.122;5.406;2023-07-28T08:34:20;11.48;;;4.15;;
72156;SDS011;60035;52.122;5.406;2023-07-28T08:36:47;9.25;;;3.80;;
72156;SDS011;60035;52.122;5.406;2023-07-28T08:39:14;10.10;;;3.88;;
72156;SDS011;60035;52.122;5.406;2023-07-28T08:41:41;11.65;;;4.30;;
72156;SDS011;60035;52.122;5.406;2023-07-28T08:44:08;13.18;;;4.00;;
72156;SDS011;60035;52.122;5.406;2023-07-28T08:46:34;15.80;;;3.90;;
72156;SDS011;60035;52.122;5.406;2023-07-28T08:49:02;11.52;;;3.78;;
72156;SDS011;60035;52.122;5.406;2023-07-28T08:51:28;11.68;;;3.38;;
72156;SDS011;60035;52.122;5.406;2023-07-28T08:53:55;13.25;;;3.70;;
72156;SDS011;60035;52.122;5.406;2023-07-28T08:56:22;11.25;;;3.65;;
72156;SDS011;60035;52.122;5.406;2023-07-28T08:58:56;10.98;;;3.65;;
72156;SDS011;60035;52.122;5.406;2023-07-28T09:01:24;9.75;;;3.45;;
72156;SDS011;60035;52.122;5.406;2023-07-28T09:03:50;10.70;;;3.53;;
72156;SDS011;60035;52.122;5.406;2023-07-28T09:06:17;12.00;;;3.38;;
72156;SDS011;60035;52.122;5.406;2023-07-28T09:08:45;11.32;;;3.47;;
72156;SDS011;60035;52.122;5.406;2023-07-28T09:11:11;8.60;;;3.45;;
72156;SDS011;60035;52.122;5.406;2023-07-28T09:13:40;7.85;;;2.97;;
72156;SDS011;60035;52.122;5.406;2023-07-28T09:16:17;10.48;;;3.28;;
72156;SDS011;60035;52.122;5.406;2023-07-28T09:18:45;10.25;;;3.05;;
72156;SDS011;60035;52.122;5.406;2023-07-28T09:21:16;9.52;;;3.30;;
72156;SDS011;60035;52.122;5.406;2023-07-28T09:23:55;10.68;;;2.85;;
72156;SDS011;60035;52.122;5.406;2023-07-28T09:26:22;8.63;;;2.90;;
72156;SDS011;60035;52.122;5.406;2023-07-28T09:28:49;8.93;;;2.70;;
72156;SDS011;60035;52.122;5.406;2023-07-28T09:31:16;6.75;;;2.63;;
72156;SDS011;60035;52.122;5.406;2023-07-28T09:33:54;6.82;;;2.72;;
72156;SDS011;60035;52.122;5.406;2023-07-28T09:36:21;9.15;;;2.88;;
72156;SDS011;60035;52.122;5.406;2023-07-28T09:38:51;7.25;;;2.50;;
72156;SDS011;60035;52.122;5.406;2023-07-28T09:41:20;10.32;;;2.67;;
72156;SDS011;60035;52.122;5.406;2023-07-28T09:43:48;8.13;;;2.83;;
72156;SDS011;60035;52.122;5.406;2023-07-28T09:46:17;9.32;;;2.80;;
72156;SDS011;60035;52.122;5.406;2023-07-28T09:48:45;10.05;;;2.90;;
72156;SDS011;60035;52.122;5.406;2023-07-28T09:51:17;8.68;;;2.53;;
72156;SDS011;60035;52.122;5.406;2023-07-28T09:53:48;8.75;;;2.75;;
72156;SDS011;60035;52.122;5.406;2023-07-28T10:31:19;7.70;;;3.00;;
72156;SDS011;60035;52.122;5.406;2023-07-28T10:33:56;7.80;;;3.63;;
72156;SDS011;60035;52.122;5.406;2023-07-28T10:39:11;7.97;;;3.38;;
72156;SDS011;60035;52.122;5.406;2023-07-28T10:44:30;9.10;;;3.22;;
72156;SDS011;60035;52.122;5.406;2023-07-28T10:46:57;7.75;;;3.50;;
72156;SDS011;60035;52.122;5.406;2023-07-28T10:49:27;6.93;;;3.53;;
72156;SDS011;60035;52.122;5.406;2023-07-28T10:51:54;7.82;;;3.30;;
72156;SDS011;60035;52.122;5.406;2023-07-28T10:54:21;8.43;;;3.33;;
72156;SDS011;60035;52.122;5.406;2023-07-28T10:56:48;7.40;;;3.05;;
72156;SDS011;60035;52.122;5.406;2023-07-28T10:59:15;7.53;;;3.70;;
72156;SDS011;60035;52.122;5.406;2023-07-28T11:01:42;11.32;;;3.38;;
72156;SDS011;60035;52.122;5.406;2023-07-28T11:06:41;9.90;;;3.30;;
72156;SDS011;60035;52.122;5.406;2023-07-28T11:09:09;9.60;;;3.95;;
72156;SDS011;60035;52.122;5.406;2023-07-28T11:11:37;12.20;;;3.92;;
72156;SDS011;60035;52.122;5.406;2023-07-28T11:14:05;8.63;;;3.40;;
72156;SDS011;60035;52.122;5.406;2023-07-28T11:16:36;10.23;;;4.30;;
72156;SDS011;60035;52.122;5.406;2023-07-28T11:19:08;10.23;;;4.40;;
72156;SDS011;60035;52.122;5.406;2023-07-28T11:21:52;10.55;;;4.28;;
72156;SDS011;60035;52.122;5.406;2023-07-28T11:24:19;9.27;;;4.13;;
72156;SDS011;60035;52.122;5.406;2023-07-28T11:26:47;8.00;;;3.47;;
72156;SDS011;60035;52.122;5.406;2023-07-28T11:29:15;10.45;;;3.60;;
72156;SDS011;60035;52.122;5.406;2023-07-28T11:31:42;10.65;;;4.30;;
72156;SDS011;60035;52.122;5.406;2023-07-28T11:34:15;11.60;;;4.43;;
72156;SDS011;60035;52.122;5.406;2023-07-28T11:36:42;11.55;;;4.95;;
72156;SDS011;60035;52.122;5.406;2023-07-28T11:39:09;15.23;;;4.90;;
72156;SDS011;60035;52.122;5.406;2023-07-28T11:41:37;11.60;;;4.72;;
72156;SDS011;60035;52.122;5.406;2023-07-28T11:44:04;10.07;;;4.70;;
72156;SDS011;60035;52.122;5.406;2023-07-28T11:46:36;13.40;;;5.75;;
72156;SDS011;60035;52.122;5.406;2023-07-28T11:49:14;11.77;;;5.88;;
72156;SDS011;60035;52.122;5.406;2023-07-28T11:51:49;13.55;;;5.57;;
72156;SDS011;60035;52.122;5.406;2023-07-28T11:54:20;11.88;;;5.13;;
72156;SDS011;60035;52.122;5.406;2023-07-28T11:56:49;10.40;;;4.80;;
72156;SDS011;60035;52.122;5.406;2023-07-28T11:59:17;12.20;;;5.47;;
72156;SDS011;60035;52.122;5.406;2023-07-28T12:04:23;10.88;;;4.55;;
72156;SDS011;60035;52.122;5.406;2023-07-28T12:07:05;9.25;;;4.18;;
72156;SDS011;60035;52.122;5.406;2023-07-28T12:12:12;8.52;;;3.30;;
72156;SDS011;60035;52.122;5.406;2023-07-28T12:14:50;9.18;;;4.15;;
72156;SDS011;60035;52.122;5.406;2023-07-28T12:17:23;9.90;;;4.30;;
72156;SDS011;60035;52.122;5.406;2023-07-28T12:20:12;8.57;;;3.88;;
72156;SDS011;60035;52.122;5.406;2023-07-28T12:22:41;9.95;;;3.75;;
72156;SDS011;60035;52.122;5.406;2023-07-28T12:25:09;9.70;;;3.60;;
72156;SDS011;60035;52.122;5.406;2023-07-28T12:27:37;9.35;;;3.70;;
72156;SDS011;60035;52.122;5.406;2023-07-28T12:30:04;10.85;;;3.13;;
72156;SDS011;60035;52.122;5.406;2023-07-28T12:32:31;7.47;;;3.03;;
72156;SDS011;60035;52.122;5.406;2023-07-28T12:35:00;6.82;;;2.35;;
72156;SDS011;60035;52.122;5.406;2023-07-28T12:37:40;7.85;;;3.10;;
72156;SDS011;60035;52.122;5.406;2023-07-28T12:40:10;7.32;;;3.10;;
72156;SDS011;60035;52.122;5.406;2023-07-28T12:42:57;10.35;;;3.25;;
72156;SDS011;60035;52.122;5.406;2023-07-28T12:45:28;7.40;;;2.40;;
72156;SDS011;60035;52.122;5.406;2023-07-28T12:48:15;7.55;;;3.03;;
72156;SDS011;60035;52.122;5.406;2023-07-28T12:50:44;8.32;;;2.67;;
72156;SDS011;60035;52.122;5.406;2023-07-28T12:53:11;8.20;;;3.03;;
72156;SDS011;60035;52.122;5.406;2023-07-28T12:55:44;7.10;;;2.70;;
72156;SDS011;60035;52.122;5.406;2023-07-28T12:58:13;5.22;;;2.13;;
72156;SDS011;60035;52.122;5.406;2023-07-28T13:00:43;5.50;;;2.60;;
72156;SDS011;60035;52.122;5.406;2023-07-28T13:03:13;7.90;;;2.75;;
72156;SDS011;60035;52.122;5.406;2023-07-28T13:05:39;7.57;;;2.75;;
72156;SDS011;60035;52.122;5.406;2023-07-28T13:08:09;8.15;;;2.53;;
72156;SDS011;60035;52.122;5.406;2023-07-28T13:10:36;7.60;;;2.63;;
72156;SDS011;60035;52.122;5.406;2023-07-28T13:13:05;6.20;;;2.78;;
72156;SDS011;60035;52.122;5.406;2023-07-28T13:15:37;6.82;;;2.65;;
72156;SDS011;60035;52.122;5.406;2023-07-28T13:18:04;8.48;;;3.17;;
72156;SDS011;60035;52.122;5.406;2023-07-28T13:20:31;7.45;;;3.03;;
72156;SDS011;60035;52.122;5.406;2023-07-28T13:22:57;7.35;;;3.80;;
72156;SDS011;60035;52.122;5.406;2023-07-28T13:25:24;9.90;;;3.55;;
72156;SDS011;60035;52.122;5.406;2023-07-28T13:27:50;7.90;;;3.45;;
72156;SDS011;60035;52.122;5.406;2023-07-28T13:30:17;8.05;;;3.72;;
72156;SDS011;60035;52.122;5.406;2023-07-28T13:32:44;6.55;;;3.10;;
72156;SDS011;60035;52.122;5.406;2023-07-28T13:35:10;7.95;;;3.25;;
72156;SDS011;60035;52.122;5.406;2023-07-28T13:37:37;6.00;;;2.63;;
72156;SDS011;60035;52.122;5.406;2023-07-28T13:40:03;6.60;;;2.92;;
72156;SDS011;60035;52.122;5.406;2023-07-28T13:45:00;7.15;;;3.25;;
72156;SDS011;60035;52.122;5.406;2023-07-28T13:47:27;8.43;;;3.72;;
72156;SDS011;60035;52.122;5.406;2023-07-28T13:49:54;6.32;;;3.30;;
72156;SDS011;60035;52.122;5.406;2023-07-28T13:52:20;7.78;;;3.60;;
72156;SDS011;60035;52.122;5.406;2023-07-28T13:54:48;7.32;;;3.10;;
72156;SDS011;60035;52.122;5.406;2023-07-28T13:57:18;6.50;;;2.92;;
72156;SDS011;60035;52.122;5.406;2023-07-28T13:59:45;8.35;;;3.30;;
72156;SDS011;60035;52.122;5.406;2023-07-28T14:02:11;6.70;;;3.17;;
72156;SDS011;60035;52.122;5.406;2023-07-28T14:04:38;7.07;;;3.33;;
72156;SDS011;60035;52.122;5.406;2023-07-28T14:07:05;6.55;;;3.15;;
72156;SDS011;60035;52.122;5.406;2023-07-28T14:09:32;8.30;;;3.03;;
72156;SDS011;60035;52.122;5.406;2023-07-28T14:11:59;5.75;;;2.75;;
72156;SDS011;60035;52.122;5.406;2023-07-28T14:14:25;5.80;;;2.60;;
72156;SDS011;60035;52.122;5.406;2023-07-28T14:16:52;6.70;;;3.40;;
72156;SDS011;60035;52.122;5.406;2023-07-28T14:19:18;6.30;;;2.85;;
72156;SDS011;60035;52.122;5.406;2023-07-28T14:21:45;10.43;;;3.10;;
72156;SDS011;60035;52.122;5.406;2023-07-28T14:24:11;8.18;;;3.42;;
72156;SDS011;60035;52.122;5.406;2023-07-28T14:26:38;7.40;;;2.95;;
72156;SDS011;60035;52.122;5.406;2023-07-28T14:29:05;6.32;;;2.92;;
72156;SDS011;60035;52.122;5.406;2023-07-28T14:31:32;6.30;;;2.65;;
72156;SDS011;60035;52.122;5.406;2023-07-28T14:33:58;7.05;;;3.47;;
72156;SDS011;60035;52.122;5.406;2023-07-28T14:36:25;7.97;;;2.85;;
72156;SDS011;60035;52.122;5.406;2023-07-28T14:38:52;7.20;;;3.10;;
72156;SDS011;60035;52.122;5.406;2023-07-28T14:41:18;6.40;;;2.55;;
72156;SDS011;60035;52.122;5.406;2023-07-28T14:43:45;7.00;;;2.83;;
72156;SDS011;60035;52.122;5.406;2023-07-28T14:46:11;6.97;;;3.13;;
72156;SDS011;60035;52.122;5.406;2023-07-28T14:48:38;8.55;;;3.10;;
72156;SDS011;60035;52.122;5.406;2023-07-28T14:51:05;6.40;;;2.90;;
72156;SDS011;60035;52.122;5.406;2023-07-28T14:56:06;9.07;;;3.55;;
72156;SDS011;60035;52.122;5.406;2023-07-28T14:58:34;7.55;;;3.40;;
72156;SDS011;60035;52.122;5.406;2023-07-28T15:01:00;8.40;;;3.83;;
72156;SDS011;60035;52.122;5.406;2023-07-28T15:03:28;8.43;;;4.22;;
72156;SDS011;60035;52.122;5.406;2023-07-28T15:05:57;9.73;;;4.93;;
72156;SDS011;60035;52.122;5.406;2023-07-28T15:08:24;11.05;;;5.07;;
72156;SDS011;60035;52.122;5.406;2023-07-28T15:10:51;11.10;;;6.05;;
72156;SDS011;60035;52.122;5.406;2023-07-28T15:13:18;14.27;;;6.10;;
72156;SDS011;60035;52.122;5.406;2023-07-28T15:15:45;12.15;;;5.93;;
72156;SDS011;60035;52.122;5.406;2023-07-28T15:18:12;13.82;;;7.72;;
72156;SDS011;60035;52.122;5.406;2023-07-28T15:20:39;12.60;;;6.53;;
72156;SDS011;60035;52.122;5.406;2023-07-28T15:23:06;13.20;;;6.43;;
72156;SDS011;60035;52.122;5.406;2023-07-28T15:25:33;11.27;;;6.00;;
72156;SDS011;60035;52.122;5.406;2023-07-28T15:28:00;12.52;;;6.82;;
72156;SDS011;60035;52.122;5.406;2023-07-28T15:30:27;11.57;;;6.13;;
72156;SDS011;60035;52.122;5.406;2023-07-28T15:32:53;12.27;;;6.25;;
72156;SDS011;60035;52.122;5.406;2023-07-28T15:35:20;12.02;;;5.88;;
72156;SDS011;60035;52.122;5.406;2023-07-28T15:37:47;9.95;;;5.10;;